Kelly Springs, Alabama
Current Conditions -  °F | °C
As of 7:53 AM on Thursday 30 Oct 2014 (Local Time) from KDHN Reporting Station
Clear Clear  
Wind Chill: 56°   Ceiling: Unl
Heat Index: 56°   Visibility: 10mi
Dew Point: 47°   Wind: 5mph
Humidity: 72%   Direction: 10°N
Pressure: 30.1"   Gusts: NA
Location:  31.2035°N, 85.4998°W
Report Text: KDHN 301253Z 01004KT 10SM CLR 13/08 A3010 RMK AO2 SLP190 T01330083
Loading
Personal Weather Stations






























Interactive Weather Map
Tropical Storm Tracking
New forecast layout! Learn more

10-Day Weather Forecast

Advertisements
Track Severe Weather on mobile